sensor_id;sensor_type;location;lat;lon;timestamp;P1;durP1;ratioP1;P2;durP2;ratioP2
40162;SDS011;25881;47.462;19.304;2023-09-18T00:01:42;14.53;;;8.33;;
40162;SDS011;25881;47.462;19.304;2023-09-18T00:04:09;10.23;;;8.97;;
40162;SDS011;25881;47.462;19.304;2023-09-18T00:06:34;14.32;;;8.70;;
40162;SDS011;25881;47.462;19.304;2023-09-18T00:09:00;10.90;;;7.72;;
40162;SDS011;25881;47.462;19.304;2023-09-18T00:11:25;10.97;;;8.33;;
40162;SDS011;25881;47.462;19.304;2023-09-18T00:13:50;12.30;;;8.07;;
40162;SDS011;25881;47.462;19.304;2023-09-18T00:16:15;10.93;;;7.90;;
40162;SDS011;25881;47.462;19.304;2023-09-18T00:18:41;14.23;;;8.27;;
40162;SDS011;25881;47.462;19.304;2023-09-18T00:21:07;12.48;;;9.05;;
40162;SDS011;25881;47.462;19.304;2023-09-18T00:23:34;13.60;;;8.88;;
40162;SDS011;25881;47.462;19.304;2023-09-18T00:26:00;10.70;;;8.50;;
40162;SDS011;25881;47.462;19.304;2023-09-18T00:28:25;9.83;;;8.27;;
40162;SDS011;25881;47.462;19.304;2023-09-18T00:30:50;12.40;;;8.30;;
40162;SDS011;25881;47.462;19.304;2023-09-18T00:33:16;13.57;;;7.70;;
40162;SDS011;25881;47.462;19.304;2023-09-18T00:35:44;12.18;;;8.63;;
40162;SDS011;25881;47.462;19.304;2023-09-18T00:38:10;11.02;;;8.43;;
40162;SDS011;25881;47.462;19.304;2023-09-18T00:40:35;11.38;;;8.07;;
40162;SDS011;25881;47.462;19.304;2023-09-18T00:43:00;9.87;;;8.63;;
40162;SDS011;25881;47.462;19.304;2023-09-18T00:45:26;12.80;;;8.83;;
40162;SDS011;25881;47.462;19.304;2023-09-18T00:47:51;13.37;;;8.47;;
40162;SDS011;25881;47.462;19.304;2023-09-18T00:50:19;12.85;;;9.20;;
40162;SDS011;25881;47.462;19.304;2023-09-18T00:52:45;10.07;;;8.10;;
40162;SDS011;25881;47.462;19.304;2023-09-18T00:55:10;12.60;;;8.60;;
40162;SDS011;25881;47.462;19.304;2023-09-18T00:57:36;11.30;;;9.50;;
40162;SDS011;25881;47.462;19.304;2023-09-18T01:00:02;14.05;;;9.15;;
40162;SDS011;25881;47.462;19.304;2023-09-18T01:02:30;12.48;;;7.93;;
40162;SDS011;25881;47.462;19.304;2023-09-18T01:04:55;11.23;;;8.80;;
40162;SDS011;25881;47.462;19.304;2023-09-18T01:07:20;12.02;;;8.60;;
40162;SDS011;25881;47.462;19.304;2023-09-18T01:09:46;12.23;;;8.80;;
40162;SDS011;25881;47.462;19.304;2023-09-18T01:14:39;20.88;;;8.75;;
40162;SDS011;25881;47.462;19.304;2023-09-18T01:17:05;12.23;;;8.93;;
40162;SDS011;25881;47.462;19.304;2023-09-18T01:22:02;12.38;;;9.18;;
40162;SDS011;25881;47.462;19.304;2023-09-18T01:24:27;11.75;;;9.02;;
40162;SDS011;25881;47.462;19.304;2023-09-18T01:26:52;11.80;;;9.40;;
40162;SDS011;25881;47.462;19.304;2023-09-18T01:29:18;13.00;;;9.53;;
40162;SDS011;25881;47.462;19.304;2023-09-18T01:31:44;12.68;;;9.23;;
40162;SDS011;25881;47.462;19.304;2023-09-18T01:34:12;11.88;;;9.45;;
40162;SDS011;25881;47.462;19.304;2023-09-18T01:36:37;16.27;;;10.05;;
40162;SDS011;25881;47.462;19.304;2023-09-18T01:39:03;12.02;;;10.10;;
40162;SDS011;25881;47.462;19.304;2023-09-18T01:41:28;13.48;;;9.60;;
40162;SDS011;25881;47.462;19.304;2023-09-18T01:43:54;15.47;;;9.53;;
40162;SDS011;25881;47.462;19.304;2023-09-18T01:46:20;13.70;;;9.85;;
40162;SDS011;25881;47.462;19.304;2023-09-18T01:48:46;19.85;;;9.05;;
40162;SDS011;25881;47.462;19.304;2023-09-18T01:51:13;11.60;;;9.15;;
40162;SDS011;25881;47.462;19.304;2023-09-18T01:53:38;12.95;;;9.95;;
40162;SDS011;25881;47.462;19.304;2023-09-18T01:56:03;11.77;;;9.70;;
40162;SDS011;25881;47.462;19.304;2023-09-18T01:58:29;13.90;;;9.87;;
40162;SDS011;25881;47.462;19.304;2023-09-18T02:00:54;14.82;;;9.93;;
40162;SDS011;25881;47.462;19.304;2023-09-18T02:03:19;11.60;;;9.53;;
40162;SDS011;25881;47.462;19.304;2023-09-18T02:05:46;15.18;;;9.70;;
40162;SDS011;25881;47.462;19.304;2023-09-18T02:08:11;11.83;;;9.57;;
40162;SDS011;25881;47.462;19.304;2023-09-18T02:10:36;11.23;;;8.47;;
40162;SDS011;25881;47.462;19.304;2023-09-18T02:13:01;11.83;;;9.93;;
40162;SDS011;25881;47.462;19.304;2023-09-18T02:15:27;12.83;;;10.23;;
40162;SDS011;25881;47.462;19.304;2023-09-18T02:17:52;12.43;;;9.60;;
40162;SDS011;25881;47.462;19.304;2023-09-18T02:20:17;11.37;;;9.50;;
40162;SDS011;25881;47.462;19.304;2023-09-18T02:22:43;14.43;;;10.00;;
40162;SDS011;25881;47.462;19.304;2023-09-18T02:25:11;13.90;;;10.73;;
40162;SDS011;25881;47.462;19.304;2023-09-18T02:27:37;13.35;;;10.60;;
40162;SDS011;25881;47.462;19.304;2023-09-18T02:30:02;15.03;;;9.27;;
40162;SDS011;25881;47.462;19.304;2023-09-18T02:32:27;11.65;;;9.38;;
40162;SDS011;25881;47.462;19.304;2023-09-18T02:34:53;16.43;;;11.07;;
40162;SDS011;25881;47.462;19.304;2023-09-18T02:37:18;14.57;;;9.57;;
40162;SDS011;25881;47.462;19.304;2023-09-18T02:39:43;12.67;;;10.03;;
40162;SDS011;25881;47.462;19.304;2023-09-18T02:42:08;15.77;;;10.87;;
40162;SDS011;25881;47.462;19.304;2023-09-18T02:44:34;13.25;;;10.20;;
40162;SDS011;25881;47.462;19.304;2023-09-18T02:46:59;13.43;;;10.17;;
40162;SDS011;25881;47.462;19.304;2023-09-18T02:49:24;12.37;;;9.87;;
40162;SDS011;25881;47.462;19.304;2023-09-18T02:51:49;13.40;;;9.73;;
40162;SDS011;25881;47.462;19.304;2023-09-18T02:54:14;12.20;;;9.77;;
40162;SDS011;25881;47.462;19.304;2023-09-18T02:56:40;13.50;;;10.57;;
40162;SDS011;25881;47.462;19.304;2023-09-18T02:59:05;13.47;;;10.20;;
40162;SDS011;25881;47.462;19.304;2023-09-18T03:01:30;16.80;;;10.53;;
40162;SDS011;25881;47.462;19.304;2023-09-18T03:03:55;12.90;;;10.20;;
40162;SDS011;25881;47.462;19.304;2023-09-18T03:06:21;14.18;;;11.05;;
40162;SDS011;25881;47.462;19.304;2023-09-18T03:08:46;13.57;;;10.63;;
40162;SDS011;25881;47.462;19.304;2023-09-18T03:11:12;14.53;;;11.10;;
40162;SDS011;25881;47.462;19.304;2023-09-18T03:13:42;13.60;;;10.57;;
40162;SDS011;25881;47.462;19.304;2023-09-18T03:16:09;15.40;;;11.02;;
40162;SDS011;25881;47.462;19.304;2023-09-18T03:18:34;12.73;;;11.33;;
40162;SDS011;25881;47.462;19.304;2023-09-18T03:21:00;15.60;;;12.03;;
40162;SDS011;25881;47.462;19.304;2023-09-18T03:23:25;13.73;;;10.63;;
40162;SDS011;25881;47.462;19.304;2023-09-18T03:25:50;15.67;;;10.77;;
40162;SDS011;25881;47.462;19.304;2023-09-18T03:28:15;16.77;;;11.02;;
40162;SDS011;25881;47.462;19.304;2023-09-18T03:30:41;16.30;;;11.83;;
40162;SDS011;25881;47.462;19.304;2023-09-18T03:33:06;13.10;;;11.17;;
40162;SDS011;25881;47.462;19.304;2023-09-18T03:35:31;16.67;;;11.70;;
40162;SDS011;25881;47.462;19.304;2023-09-18T03:37:57;17.50;;;12.38;;
40162;SDS011;25881;47.462;19.304;2023-09-18T03:40:22;18.77;;;12.20;;
40162;SDS011;25881;47.462;19.304;2023-09-18T03:42:48;16.55;;;12.02;;
40162;SDS011;25881;47.462;19.304;2023-09-18T03:45:14;13.93;;;11.63;;
40162;SDS011;25881;47.462;19.304;2023-09-18T03:47:40;14.98;;;11.82;;
40162;SDS011;25881;47.462;19.304;2023-09-18T03:50:06;16.35;;;11.32;;
40162;SDS011;25881;47.462;19.304;2023-09-18T03:52:32;13.13;;;11.38;;
40162;SDS011;25881;47.462;19.304;2023-09-18T03:54:57;14.27;;;11.53;;
40162;SDS011;25881;47.462;19.304;2023-09-18T03:57:22;14.60;;;11.37;;
40162;SDS011;25881;47.462;19.304;2023-09-18T03:59:47;15.47;;;11.47;;
40162;SDS011;25881;47.462;19.304;2023-09-18T04:02:13;16.53;;;11.90;;
40162;SDS011;25881;47.462;19.304;2023-09-18T04:04:38;14.70;;;11.03;;
40162;SDS011;25881;47.462;19.304;2023-09-18T04:07:06;23.15;;;12.13;;
40162;SDS011;25881;47.462;19.304;2023-09-18T04:09:31;21.63;;;13.00;;
40162;SDS011;25881;47.462;19.304;2023-09-18T04:11:57;15.63;;;11.90;;
40162;SDS011;25881;47.462;19.304;2023-09-18T04:14:22;14.55;;;11.85;;
40162;SDS011;25881;47.462;19.304;2023-09-18T04:16:47;16.53;;;12.70;;
40162;SDS011;25881;47.462;19.304;2023-09-18T04:19:13;14.33;;;11.03;;
40162;SDS011;25881;47.462;19.304;2023-09-18T04:21:38;23.63;;;12.25;;
40162;SDS011;25881;47.462;19.304;2023-09-18T04:24:03;15.30;;;11.73;;
40162;SDS011;25881;47.462;19.304;2023-09-18T04:26:29;15.65;;;11.73;;
40162;SDS011;25881;47.462;19.304;2023-09-18T04:28:59;14.85;;;12.57;;
40162;SDS011;25881;47.462;19.304;2023-09-18T04:31:24;17.50;;;12.23;;
40162;SDS011;25881;47.462;19.304;2023-09-18T04:33:49;14.07;;;11.40;;
40162;SDS011;25881;47.462;19.304;2023-09-18T04:36:15;16.47;;;11.83;;
40162;SDS011;25881;47.462;19.304;2023-09-18T04:38:40;17.67;;;13.77;;
40162;SDS011;25881;47.462;19.304;2023-09-18T04:41:05;16.93;;;12.33;;
40162;SDS011;25881;47.462;19.304;2023-09-18T04:43:33;16.58;;;12.10;;
40162;SDS011;25881;47.462;19.304;2023-09-18T04:45:58;16.40;;;12.82;;
40162;SDS011;25881;47.462;19.304;2023-09-18T04:48:23;15.63;;;12.17;;
40162;SDS011;25881;47.462;19.304;2023-09-18T04:50:48;17.50;;;12.33;;
40162;SDS011;25881;47.462;19.304;2023-09-18T04:53:14;15.23;;;11.97;;
40162;SDS011;25881;47.462;19.304;2023-09-18T04:55:39;15.18;;;12.07;;
40162;SDS011;25881;47.462;19.304;2023-09-18T04:58:04;17.53;;;11.73;;
40162;SDS011;25881;47.462;19.304;2023-09-18T05:00:30;15.90;;;12.07;;
40162;SDS011;25881;47.462;19.304;2023-09-18T05:02:56;20.13;;;12.20;;
40162;SDS011;25881;47.462;19.304;2023-09-18T05:05:24;16.58;;;12.15;;
40162;SDS011;25881;47.462;19.304;2023-09-18T05:07:50;13.13;;;11.67;;
40162;SDS011;25881;47.462;19.304;2023-09-18T05:10:15;13.73;;;11.90;;
40162;SDS011;25881;47.462;19.304;2023-09-18T05:12:40;15.73;;;11.90;;
40162;SDS011;25881;47.462;19.304;2023-09-18T05:15:06;17.33;;;12.82;;
40162;SDS011;25881;47.462;19.304;2023-09-18T05:17:44;18.75;;;12.63;;
40162;SDS011;25881;47.462;19.304;2023-09-18T05:20:11;14.85;;;12.48;;
40162;SDS011;25881;47.462;19.304;2023-09-18T05:22:41;15.68;;;11.35;;
40162;SDS011;25881;47.462;19.304;2023-09-18T05:25:07;16.73;;;11.73;;
40162;SDS011;25881;47.462;19.304;2023-09-18T05:27:32;15.15;;;11.85;;
40162;SDS011;25881;47.462;19.304;2023-09-18T05:29:57;17.13;;;12.63;;
40162;SDS011;25881;47.462;19.304;2023-09-18T05:32:23;15.17;;;12.00;;
40162;SDS011;25881;47.462;19.304;2023-09-18T05:34:48;16.02;;;13.25;;
40162;SDS011;25881;47.462;19.304;2023-09-18T05:37:13;18.97;;;12.23;;
40162;SDS011;25881;47.462;19.304;2023-09-18T05:39:38;19.50;;;13.93;;
40162;SDS011;25881;47.462;19.304;2023-09-18T05:42:04;20.07;;;13.50;;
40162;SDS011;25881;47.462;19.304;2023-09-18T05:44:29;14.18;;;11.68;;
40162;SDS011;25881;47.462;19.304;2023-09-18T05:46:55;20.23;;;13.00;;
40162;SDS011;25881;47.462;19.304;2023-09-18T05:49:20;20.40;;;13.35;;
40162;SDS011;25881;47.462;19.304;2023-09-18T05:51:45;15.80;;;12.60;;
40162;SDS011;25881;47.462;19.304;2023-09-18T05:54:12;15.88;;;12.80;;
40162;SDS011;25881;47.462;19.304;2023-09-18T05:56:37;14.10;;;12.47;;
40162;SDS011;25881;47.462;19.304;2023-09-18T05:59:03;14.10;;;11.98;;
40162;SDS011;25881;47.462;19.304;2023-09-18T06:01:28;15.50;;;12.15;;
40162;SDS011;25881;47.462;19.304;2023-09-18T06:03:53;15.70;;;12.53;;
40162;SDS011;25881;47.462;19.304;2023-09-18T06:06:18;18.17;;;12.73;;
40162;SDS011;25881;47.462;19.304;2023-09-18T06:08:44;15.87;;;12.67;;
40162;SDS011;25881;47.462;19.304;2023-09-18T06:11:09;20.17;;;13.17;;
40162;SDS011;25881;47.462;19.304;2023-09-18T06:13:34;16.90;;;11.97;;
40162;SDS011;25881;47.462;19.304;2023-09-18T06:15:59;16.93;;;11.70;;
40162;SDS011;25881;47.462;19.304;2023-09-18T06:18:30;15.10;;;11.20;;
40162;SDS011;25881;47.462;19.304;2023-09-18T06:20:55;14.03;;;11.30;;
40162;SDS011;25881;47.462;19.304;2023-09-18T06:23:21;14.63;;;11.40;;
40162;SDS011;25881;47.462;19.304;2023-09-18T06:25:46;17.30;;;11.63;;
40162;SDS011;25881;47.462;19.304;2023-09-18T06:28:11;15.80;;;12.03;;
40162;SDS011;25881;47.462;19.304;2023-09-18T06:30:37;14.13;;;11.75;;
40162;SDS011;25881;47.462;19.304;2023-09-18T06:33:02;17.40;;;11.27;;
40162;SDS011;25881;47.462;19.304;2023-09-18T06:35:29;17.38;;;11.75;;
40162;SDS011;25881;47.462;19.304;2023-09-18T06:37:54;15.18;;;11.50;;
40162;SDS011;25881;47.462;19.304;2023-09-18T06:40:23;13.85;;;11.38;;
40162;SDS011;25881;47.462;19.304;2023-09-18T06:42:48;17.47;;;11.73;;
40162;SDS011;25881;47.462;19.304;2023-09-18T06:45:14;14.82;;;10.80;;
40162;SDS011;25881;47.462;19.304;2023-09-18T06:47:39;14.20;;;10.67;;
40162;SDS011;25881;47.462;19.304;2023-09-18T06:50:06;12.68;;;10.60;;
40162;SDS011;25881;47.462;19.304;2023-09-18T06:52:31;15.40;;;11.07;;
40162;SDS011;25881;47.462;19.304;2023-09-18T06:54:56;14.90;;;10.93;;
40162;SDS011;25881;47.462;19.304;2023-09-18T06:57:23;15.05;;;11.07;;
40162;SDS011;25881;47.462;19.304;2023-09-18T06:59:48;16.58;;;10.50;;
40162;SDS011;25881;47.462;19.304;2023-09-18T07:02:13;12.37;;;9.97;;
40162;SDS011;25881;47.462;19.304;2023-09-18T07:04:41;12.82;;;10.45;;
40162;SDS011;25881;47.462;19.304;2023-09-18T07:07:14;11.75;;;10.18;;
40162;SDS011;25881;47.462;19.304;2023-09-18T07:09:40;11.55;;;10.15;;
40162;SDS011;25881;47.462;19.304;2023-09-18T07:12:06;13.18;;;10.52;;
40162;SDS011;25881;47.462;19.304;2023-09-18T07:14:31;15.67;;;10.17;;
40162;SDS011;25881;47.462;19.304;2023-09-18T07:16:57;14.53;;;11.20;;
40162;SDS011;25881;47.462;19.304;2023-09-18T07:19:22;13.83;;;10.90;;
40162;SDS011;25881;47.462;19.304;2023-09-18T07:21:47;13.13;;;10.50;;
40162;SDS011;25881;47.462;19.304;2023-09-18T07:24:12;18.70;;;10.88;;
40162;SDS011;25881;47.462;19.304;2023-09-18T07:26:45;13.98;;;11.65;;
40162;SDS011;25881;47.462;19.304;2023-09-18T07:29:11;15.15;;;11.38;;
40162;SDS011;25881;47.462;19.304;2023-09-18T07:31:38;18.30;;;11.35;;
40162;SDS011;25881;47.462;19.304;2023-09-18T07:34:03;16.90;;;11.40;;
40162;SDS011;25881;47.462;19.304;2023-09-18T07:36:29;15.70;;;10.82;;
40162;SDS011;25881;47.462;19.304;2023-09-18T07:38:54;13.93;;;10.90;;
40162;SDS011;25881;47.462;19.304;2023-09-18T07:41:21;13.85;;;10.95;;
40162;SDS011;25881;47.462;19.304;2023-09-18T07:43:47;12.88;;;10.88;;
40162;SDS011;25881;47.462;19.304;2023-09-18T07:46:12;13.83;;;10.60;;
40162;SDS011;25881;47.462;19.304;2023-09-18T07:48:38;13.87;;;11.03;;
40162;SDS011;25881;47.462;19.304;2023-09-18T07:51:03;12.88;;;10.05;;
40162;SDS011;25881;47.462;19.304;2023-09-18T07:53:28;14.07;;;11.45;;
40162;SDS011;25881;47.462;19.304;2023-09-18T07:55:57;13.20;;;11.07;;
40162;SDS011;25881;47.462;19.304;2023-09-18T07:58:23;14.32;;;10.82;;
40162;SDS011;25881;47.462;19.304;2023-09-18T08:00:53;12.48;;;10.48;;
40162;SDS011;25881;47.462;19.304;2023-09-18T08:03:19;16.10;;;10.40;;
40162;SDS011;25881;47.462;19.304;2023-09-18T08:05:44;14.87;;;10.57;;
40162;SDS011;25881;47.462;19.304;2023-09-18T08:08:10;17.85;;;10.88;;
40162;SDS011;25881;47.462;19.304;2023-09-18T08:10:38;16.53;;;11.03;;
40162;SDS011;25881;47.462;19.304;2023-09-18T08:13:04;17.67;;;11.48;;
40162;SDS011;25881;47.462;19.304;2023-09-18T08:15:29;13.33;;;10.70;;
40162;SDS011;25881;47.462;19.304;2023-09-18T08:17:55;16.15;;;11.18;;
40162;SDS011;25881;47.462;19.304;2023-09-18T08:20:20;14.37;;;10.67;;
40162;SDS011;25881;47.462;19.304;2023-09-18T08:22:45;15.15;;;11.02;;
40162;SDS011;25881;47.462;19.304;2023-09-18T08:25:12;15.48;;;11.00;;
40162;SDS011;25881;47.462;19.304;2023-09-18T08:27:38;18.67;;;10.43;;
40162;SDS011;25881;47.462;19.304;2023-09-18T08:30:08;13.27;;;10.32;;
40162;SDS011;25881;47.462;19.304;2023-09-18T08:32:35;14.27;;;10.25;;
40162;SDS011;25881;47.462;19.304;2023-09-18T08:35:00;15.35;;;10.20;;
40162;SDS011;25881;47.462;19.304;2023-09-18T08:37:27;13.30;;;9.95;;
40162;SDS011;25881;47.462;19.304;2023-09-18T08:39:52;12.87;;;9.97;;
40162;SDS011;25881;47.462;19.304;2023-09-18T08:42:17;13.87;;;10.20;;
40162;SDS011;25881;47.462;19.304;2023-09-18T08:44:43;13.90;;;10.48;;
40162;SDS011;25881;47.462;19.304;2023-09-18T08:47:10;18.35;;;10.68;;
40162;SDS011;25881;47.462;19.304;2023-09-18T08:49:38;12.57;;;11.02;;
40162;SDS011;25881;47.462;19.304;2023-09-18T08:52:03;14.23;;;11.95;;
40162;SDS011;25881;47.462;19.304;2023-09-18T08:54:28;14.52;;;11.18;;
40162;SDS011;25881;47.462;19.304;2023-09-18T08:56:54;14.70;;;11.00;;
40162;SDS011;25881;47.462;19.304;2023-09-18T08:59:21;14.13;;;10.60;;
40162;SDS011;25881;47.462;19.304;2023-09-18T09:01:47;14.88;;;10.13;;
40162;SDS011;25881;47.462;19.304;2023-09-18T09:04:12;12.23;;;10.73;;
40162;SDS011;25881;47.462;19.304;2023-09-18T09:06:37;14.48;;;11.05;;
40162;SDS011;25881;47.462;19.304;2023-09-18T09:09:03;14.40;;;11.33;;
40162;SDS011;25881;47.462;19.304;2023-09-18T09:11:28;11.85;;;10.63;;
40162;SDS011;25881;47.462;19.304;2023-09-18T09:16:53;15.68;;;10.20;;
40162;SDS011;25881;47.462;19.304;2023-09-18T09:19:19;13.18;;;10.05;;
40162;SDS011;25881;47.462;19.304;2023-09-18T09:21:52;12.93;;;10.18;;
40162;SDS011;25881;47.462;19.304;2023-09-18T09:24:19;12.85;;;10.27;;
40162;SDS011;25881;47.462;19.304;2023-09-18T09:27:00;21.90;;;10.85;;
40162;SDS011;25881;47.462;19.304;2023-09-18T09:29:25;12.87;;;9.40;;
40162;SDS011;25881;47.462;19.304;2023-09-18T09:31:50;13.70;;;10.73;;
40162;SDS011;25881;47.462;19.304;2023-09-18T09:34:25;15.80;;;10.93;;
40162;SDS011;25881;47.462;19.304;2023-09-18T09:36:54;12.73;;;10.15;;
40162;SDS011;25881;47.462;19.304;2023-09-18T09:39:20;11.55;;;9.95;;
40162;SDS011;25881;47.462;19.304;2023-09-18T09:41:47;13.70;;;10.00;;
40162;SDS011;25881;47.462;19.304;2023-09-18T09:44:13;15.57;;;9.65;;
40162;SDS011;25881;47.462;19.304;2023-09-18T09:46:44;11.52;;;10.32;;
40162;SDS011;25881;47.462;19.304;2023-09-18T09:49:10;15.68;;;10.70;;
40162;SDS011;25881;47.462;19.304;2023-09-18T09:51:35;13.67;;;10.63;;
40162;SDS011;25881;47.462;19.304;2023-09-18T09:54:01;12.90;;;9.77;;
40162;SDS011;25881;47.462;19.304;2023-09-18T09:56:43;13.45;;;9.85;;
40162;SDS011;25881;47.462;19.304;2023-09-18T09:59:08;11.20;;;9.85;;
40162;SDS011;25881;47.462;19.304;2023-09-18T10:01:34;13.27;;;10.88;;
40162;SDS011;25881;47.462;19.304;2023-09-18T10:04:03;13.13;;;10.85;;
40162;SDS011;25881;47.462;19.304;2023-09-18T10:06:29;14.65;;;10.80;;
40162;SDS011;25881;47.462;19.304;2023-09-18T10:08:55;15.27;;;11.07;;
40162;SDS011;25881;47.462;19.304;2023-09-18T10:11:21;13.02;;;10.30;;
40162;SDS011;25881;47.462;19.304;2023-09-18T10:13:47;11.38;;;10.18;;
40162;SDS011;25881;47.462;19.304;2023-09-18T10:16:16;12.70;;;9.90;;
40162;SDS011;25881;47.462;19.304;2023-09-18T10:18:51;12.15;;;9.80;;
40162;SDS011;25881;47.462;19.304;2023-09-18T10:21:26;14.55;;;10.05;;
40162;SDS011;25881;47.462;19.304;2023-09-18T10:24:03;12.37;;;9.60;;
40162;SDS011;25881;47.462;19.304;2023-09-18T10:26:29;11.68;;;9.52;;
40162;SDS011;25881;47.462;19.304;2023-09-18T10:28:58;13.20;;;9.77;;
40162;SDS011;25881;47.462;19.304;2023-09-18T10:31:27;12.13;;;10.38;;
40162;SDS011;25881;47.462;19.304;2023-09-18T10:33:53;12.90;;;10.85;;
40162;SDS011;25881;47.462;19.304;2023-09-18T10:36:20;11.40;;;10.03;;
40162;SDS011;25881;47.462;19.304;2023-09-18T10:38:47;11.80;;;9.70;;
40162;SDS011;25881;47.462;19.304;2023-09-18T10:41:15;16.45;;;10.73;;
40162;SDS011;25881;47.462;19.304;2023-09-18T10:43:43;14.45;;;10.70;;
40162;SDS011;25881;47.462;19.304;2023-09-18T10:46:09;14.35;;;10.23;;
40162;SDS011;25881;47.462;19.304;2023-09-18T10:48:34;13.73;;;9.52;;
40162;SDS011;25881;47.462;19.304;2023-09-18T10:51:00;12.90;;;9.07;;
40162;SDS011;25881;47.462;19.304;2023-09-18T10:53:31;13.20;;;10.23;;
40162;SDS011;25881;47.462;19.304;2023-09-18T10:55:56;12.43;;;9.23;;
40162;SDS011;25881;47.462;19.304;2023-09-18T10:58:24;11.53;;;9.73;;
40162;SDS011;25881;47.462;19.304;2023-09-18T11:00:50;13.38;;;9.05;;
40162;SDS011;25881;47.462;19.304;2023-09-18T11:03:16;19.80;;;9.60;;
40162;SDS011;25881;47.462;19.304;2023-09-18T11:05:43;11.30;;;9.40;;
40162;SDS011;25881;47.462;19.304;2023-09-18T11:08:25;14.25;;;10.55;;
40162;SDS011;25881;47.462;19.304;2023-09-18T11:13:31;11.98;;;9.65;;
40162;SDS011;25881;47.462;19.304;2023-09-18T11:16:03;10.80;;;9.27;;
40162;SDS011;25881;47.462;19.304;2023-09-18T11:18:37;16.35;;;9.70;;
40162;SDS011;25881;47.462;19.304;2023-09-18T11:21:06;12.30;;;9.33;;
40162;SDS011;25881;47.462;19.304;2023-09-18T11:23:35;15.75;;;9.93;;
40162;SDS011;25881;47.462;19.304;2023-09-18T11:26:03;11.23;;;9.38;;
40162;SDS011;25881;47.462;19.304;2023-09-18T11:28:29;14.00;;;10.50;;
40162;SDS011;25881;47.462;19.304;2023-09-18T11:30:57;14.20;;;10.30;;
40162;SDS011;25881;47.462;19.304;2023-09-18T11:33:34;10.93;;;9.13;;
40162;SDS011;25881;47.462;19.304;2023-09-18T11:36:06;16.70;;;10.43;;
40162;SDS011;25881;47.462;19.304;2023-09-18T11:38:32;13.77;;;9.98;;
40162;SDS011;25881;47.462;19.304;2023-09-18T11:40:59;11.90;;;10.50;;
40162;SDS011;25881;47.462;19.304;2023-09-18T11:43:26;11.27;;;10.17;;
40162;SDS011;25881;47.462;19.304;2023-09-18T11:45:55;15.25;;;10.32;;
40162;SDS011;25881;47.462;19.304;2023-09-18T11:48:21;11.05;;;9.57;;
40162;SDS011;25881;47.462;19.304;2023-09-18T11:50:49;10.48;;;9.38;;
40162;SDS011;25881;47.462;19.304;2023-09-18T11:53:16;11.13;;;9.48;;
40162;SDS011;25881;47.462;19.304;2023-09-18T11:55:43;14.43;;;10.50;;
40162;SDS011;25881;47.462;19.304;2023-09-18T11:58:08;15.75;;;10.07;;
40162;SDS011;25881;47.462;19.304;2023-09-18T12:00:34;16.65;;;11.05;;
40162;SDS011;25881;47.462;19.304;2023-09-18T12:03:13;12.02;;;10.60;;
40162;SDS011;25881;47.462;19.304;2023-09-18T12:05:38;19.17;;;11.75;;
40162;SDS011;25881;47.462;19.304;2023-09-18T12:08:03;14.30;;;11.47;;
40162;SDS011;25881;47.462;19.304;2023-09-18T12:10:29;16.27;;;11.20;;
40162;SDS011;25881;47.462;19.304;2023-09-18T12:12:54;17.73;;;10.50;;
40162;SDS011;25881;47.462;19.304;2023-09-18T12:15:19;18.23;;;11.27;;
40162;SDS011;25881;47.462;19.304;2023-09-18T12:17:48;11.88;;;10.38;;
40162;SDS011;25881;47.462;19.304;2023-09-18T12:20:14;17.38;;;10.88;;
40162;SDS011;25881;47.462;19.304;2023-09-18T12:22:40;12.82;;;10.98;;
40162;SDS011;25881;47.462;19.304;2023-09-18T12:25:12;14.33;;;11.07;;
40162;SDS011;25881;47.462;19.304;2023-09-18T12:27:38;14.57;;;11.48;;
40162;SDS011;25881;47.462;19.304;2023-09-18T12:30:04;13.50;;;10.85;;
40162;SDS011;25881;47.462;19.304;2023-09-18T12:32:30;12.10;;;10.80;;
40162;SDS011;25881;47.462;19.304;2023-09-18T12:34:55;13.50;;;10.18;;
40162;SDS011;25881;47.462;19.304;2023-09-18T12:37:21;18.10;;;11.18;;
40162;SDS011;25881;47.462;19.304;2023-09-18T12:39:46;13.10;;;11.10;;
40162;SDS011;25881;47.462;19.304;2023-09-18T12:42:11;14.80;;;12.07;;
40162;SDS011;25881;47.462;19.304;2023-09-18T12:44:36;14.17;;;11.50;;
40162;SDS011;25881;47.462;19.304;2023-09-18T12:47:01;13.27;;;11.17;;
40162;SDS011;25881;47.462;19.304;2023-09-18T12:49:29;14.75;;;10.90;;
40162;SDS011;25881;47.462;19.304;2023-09-18T12:54:35;12.67;;;10.67;;
40162;SDS011;25881;47.462;19.304;2023-09-18T12:57:01;14.40;;;11.13;;
40162;SDS011;25881;47.462;19.304;2023-09-18T12:59:36;14.30;;;10.93;;
40162;SDS011;25881;47.462;19.304;2023-09-18T13:02:02;12.13;;;10.50;;
40162;SDS011;25881;47.462;19.304;2023-09-18T13:04:30;13.73;;;10.85;;
40162;SDS011;25881;47.462;19.304;2023-09-18T13:07:29;12.05;;;10.38;;
40162;SDS011;25881;47.462;19.304;2023-09-18T13:12:25;12.60;;;10.25;;
40162;SDS011;25881;47.462;19.304;2023-09-18T13:14:57;17.73;;;9.90;;
40162;SDS011;25881;47.462;19.304;2023-09-18T13:17:23;12.63;;;10.80;;
40162;SDS011;25881;47.462;19.304;2023-09-18T13:19:49;11.18;;;10.02;;
40162;SDS011;25881;47.462;19.304;2023-09-18T13:22:21;12.63;;;10.77;;
40162;SDS011;25881;47.462;19.304;2023-09-18T13:24:46;14.07;;;10.63;;
40162;SDS011;25881;47.462;19.304;2023-09-18T13:27:12;12.30;;;10.83;;
40162;SDS011;25881;47.462;19.304;2023-09-18T13:29:37;17.77;;;11.43;;
40162;SDS011;25881;47.462;19.304;2023-09-18T13:32:02;17.63;;;10.95;;
40162;SDS011;25881;47.462;19.304;2023-09-18T13:34:29;11.85;;;9.57;;
40162;SDS011;25881;47.462;19.304;2023-09-18T13:36:55;11.30;;;9.77;;
40162;SDS011;25881;47.462;19.304;2023-09-18T13:39:20;15.03;;;9.67;;
40162;SDS011;25881;47.462;19.304;2023-09-18T13:41:45;13.85;;;10.82;;
40162;SDS011;25881;47.462;19.304;2023-09-18T13:44:11;17.50;;;10.05;;
40162;SDS011;25881;47.462;19.304;2023-09-18T13:46:37;10.40;;;9.30;;
40162;SDS011;25881;47.462;19.304;2023-09-18T13:49:05;10.80;;;9.60;;
40162;SDS011;25881;47.462;19.304;2023-09-18T13:51:31;12.95;;;10.05;;
40162;SDS011;25881;47.462;19.304;2023-09-18T13:53:56;16.45;;;10.70;;
40162;SDS011;25881;47.462;19.304;2023-09-18T13:56:22;14.98;;;10.95;;
40162;SDS011;25881;47.462;19.304;2023-09-18T13:58:47;12.57;;;9.77;;
40162;SDS011;25881;47.462;19.304;2023-09-18T14:01:13;11.73;;;10.18;;
40162;SDS011;25881;47.462;19.304;2023-09-18T14:03:40;17.50;;;9.97;;
40162;SDS011;25881;47.462;19.304;2023-09-18T14:06:06;13.50;;;10.57;;
40162;SDS011;25881;47.462;19.304;2023-09-18T14:08:32;13.02;;;9.77;;
40162;SDS011;25881;47.462;19.304;2023-09-18T14:10:58;17.80;;;10.07;;
40162;SDS011;25881;47.462;19.304;2023-09-18T14:13:24;14.47;;;10.67;;
40162;SDS011;25881;47.462;19.304;2023-09-18T14:15:49;11.07;;;9.73;;
40162;SDS011;25881;47.462;19.304;2023-09-18T14:18:14;16.10;;;9.40;;
40162;SDS011;25881;47.462;19.304;2023-09-18T14:20:39;11.47;;;10.00;;
40162;SDS011;25881;47.462;19.304;2023-09-18T14:23:06;12.35;;;9.43;;
40162;SDS011;25881;47.462;19.304;2023-09-18T14:25:31;12.05;;;8.98;;